sensor_id;sensor_type;location;lat;lon;timestamp;pressure;altitude;pressure_sealevel;temperature;humidity
42003;BME280;27693;50.506;30.832;2023-04-01T00:00:38;98444.41;;;6.28;100.00
42003;BME280;27693;50.506;30.832;2023-04-01T00:01:40;98439.11;;;6.31;100.00
42003;BME280;27693;50.506;30.832;2023-04-01T00:02:42;98446.08;;;6.29;100.00
42003;BME280;27693;50.506;30.832;2023-04-01T00:03:46;98440.62;;;6.35;100.00
42003;BME280;27693;50.506;30.832;2023-04-01T00:04:49;98438.50;;;6.43;100.00
42003;BME280;27693;50.506;30.832;2023-04-01T00:05:51;98440.17;;;6.44;100.00
42003;BME280;27693;50.506;30.832;2023-04-01T00:06:54;98448.83;;;6.43;100.00
42003;BME280;27693;50.506;30.832;2023-04-01T00:07:57;98440.17;;;6.44;100.00
42003;BME280;27693;50.506;30.832;2023-04-01T00:09:00;98443.27;;;6.51;100.00
42003;BME280;27693;50.506;30.832;2023-04-01T00:10:04;98436.06;;;6.58;100.00
42003;BME280;27693;50.506;30.832;2023-04-01T00:11:07;98439.25;;;6.63;100.00
42003;BME280;27693;50.506;30.832;2023-04-01T00:12:09;98429.73;;;6.63;100.00
42003;BME280;27693;50.506;30.832;2023-04-01T00:13:13;98435.75;;;6.64;100.00
42003;BME280;27693;50.506;30.832;2023-04-01T00:14:15;98434.77;;;6.66;100.00
42003;BME280;27693;50.506;30.832;2023-04-01T00:15:17;98439.53;;;6.74;100.00
42003;BME280;27693;50.506;30.832;2023-04-01T00:16:20;98435.45;;;6.70;100.00
42003;BME280;27693;50.506;30.832;2023-04-01T00:17:24;98434.77;;;6.66;100.00
42003;BME280;27693;50.506;30.832;2023-04-01T00:18:26;98441.61;;;6.67;100.00
42003;BME280;27693;50.506;30.832;2023-04-01T00:19:29;98434.08;;;6.63;100.00
42003;BME280;27693;50.506;30.832;2023-04-01T00:20:32;98437.74;;;6.59;100.00
42003;BME280;27693;50.506;30.832;2023-04-01T00:21:34;98436.06;;;6.58;100.00
42003;BME280;27693;50.506;30.832;2023-04-01T00:22:38;98440.08;;;6.63;100.00
42003;BME280;27693;50.506;30.832;2023-04-01T00:23:41;98440.69;;;6.51;100.00
42003;BME280;27693;50.506;30.832;2023-04-01T00:24:43;98437.88;;;6.55;100.00
42003;BME280;27693;50.506;30.832;2023-04-01T00:25:46;98440.24;;;6.60;100.00
42003;BME280;27693;50.506;30.832;2023-04-01T00:26:51;98438.56;;;6.59;100.00
42003;BME280;27693;50.506;30.832;2023-04-01T00:27:54;98434.98;;;6.62;100.00
42003;BME280;27693;50.506;30.832;2023-04-01T00:28:56;98439.70;;;6.53;100.00
42003;BME280;27693;50.506;30.832;2023-04-01T00:30:01;98441.06;;;6.61;100.00
42003;BME280;27693;50.506;30.832;2023-04-01T00:31:06;98433.77;;;6.69;100.00
42003;BME280;27693;50.506;30.832;2023-04-01T00:32:08;98437.13;;;6.71;100.00
42003;BME280;27693;50.506;30.832;2023-04-01T00:33:12;98436.05;;;6.75;100.00
42003;BME280;27693;50.506;30.832;2023-04-01T00:34:14;98429.28;;;6.73;100.00
42003;BME280;27693;50.506;30.832;2023-04-01T00:35:17;98437.80;;;6.75;100.00
42003;BME280;27693;50.506;30.832;2023-04-01T00:36:21;98437.13;;;6.71;100.00
42003;BME280;27693;50.506;30.832;2023-04-01T00:37:26;98427.16;;;6.63;100.00
42003;BME280;27693;50.506;30.832;2023-04-01T00:38:29;98435.59;;;6.67;100.00
42003;BME280;27693;50.506;30.832;2023-04-01T00:39:32;98425.42;;;6.64;100.00
42003;BME280;27693;50.506;30.832;2023-04-01T00:40:39;98425.93;;;6.70;100.00
42003;BME280;27693;50.506;30.832;2023-04-01T00:42:13;98418.63;;;6.79;100.00
42003;BME280;27693;50.506;30.832;2023-04-01T00:43:19;98422.80;;;6.81;100.00
42003;BME280;27693;50.506;30.832;2023-04-01T00:44:28;98424.47;;;6.82;100.00
42003;BME280;27693;50.506;30.832;2023-04-01T00:45:36;98428.42;;;6.90;100.00
42003;BME280;27693;50.506;30.832;2023-04-01T00:46:39;98427.66;;;6.87;100.00
42003;BME280;27693;50.506;30.832;2023-04-01T00:47:42;98429.19;;;6.92;100.00
42003;BME280;27693;50.506;30.832;2023-04-01T00:48:53;98426.74;;;6.88;100.00
42003;BME280;27693;50.506;30.832;2023-04-01T00:49:56;98430.09;;;6.91;100.00
42003;BME280;27693;50.506;30.832;2023-04-01T00:51:04;98425.98;;;6.86;100.00
42003;BME280;27693;50.506;30.832;2023-04-01T00:52:10;98434.36;;;6.92;100.00
42003;BME280;27693;50.506;30.832;2023-04-01T00:53:16;98431.00;;;6.90;100.00
42003;BME280;27693;50.506;30.832;2023-04-01T00:54:21;98426.28;;;6.98;100.00
42003;BME280;27693;50.506;30.832;2023-04-01T00:55:26;98434.05;;;6.80;100.00
42003;BME280;27693;50.506;30.832;2023-04-01T00:56:38;98427.29;;;6.78;100.00
42003;BME280;27693;50.506;30.832;2023-04-01T00:57:44;98434.98;;;6.79;100.00
42003;BME280;27693;50.506;30.832;2023-04-01T00:58:51;98429.20;;;6.74;100.00
42003;BME280;27693;50.506;30.832;2023-04-01T00:59:55;98434.98;;;6.79;100.00
42003;BME280;27693;50.506;30.832;2023-04-01T01:00:59;98426.97;;;6.84;100.00
42003;BME280;27693;50.506;30.832;2023-04-01T01:02:05;98430.55;;;6.81;100.00
42003;BME280;27693;50.506;30.832;2023-04-01T01:03:09;98433.31;;;6.78;100.00
42003;BME280;27693;50.506;30.832;2023-04-01T01:05:38;98431.83;;;6.90;100.00
42003;BME280;27693;50.506;30.832;2023-04-01T01:08:09;98424.52;;;6.98;100.00
42003;BME280;27693;50.506;30.832;2023-04-01T01:10:38;98427.40;;;7.10;100.00
42003;BME280;27693;50.506;30.832;2023-04-01T01:13:48;98424.05;;;7.08;100.00
42003;BME280;27693;50.506;30.832;2023-04-01T01:16:06;98418.90;;;6.90;100.00
42003;BME280;27693;50.506;30.832;2023-04-01T01:18:37;98429.63;;;7.00;100.00
42003;BME280;27693;50.506;30.832;2023-04-01T01:25:25;98429.96;;;6.76;100.00
42003;BME280;27693;50.506;30.832;2023-04-01T01:31:16;98444.07;;;6.86;100.00
42003;BME280;27693;50.506;30.832;2023-04-01T01:34:15;98428.83;;;6.82;100.00
42003;BME280;27693;50.506;30.832;2023-04-01T01:35:22;98431.00;;;6.90;100.00
42003;BME280;27693;50.506;30.832;2023-04-01T01:36:28;98438.62;;;6.93;100.00
42003;BME280;27693;50.506;30.832;2023-04-01T01:37:32;98439.35;;;6.95;100.00
42003;BME280;27693;50.506;30.832;2023-04-01T01:38:36;98438.30;;;6.99;100.00
42003;BME280;27693;50.506;30.832;2023-04-01T01:39:43;98439.35;;;6.95;100.00
42003;BME280;27693;50.506;30.832;2023-04-01T01:40:49;98439.67;;;6.88;100.00
42003;BME280;27693;50.506;30.832;2023-04-01T01:41:57;98436.85;;;6.93;100.00
42003;BME280;27693;50.506;30.832;2023-04-01T01:43:04;98444.29;;;6.99;100.00
42003;BME280;27693;50.506;30.832;2023-04-01T01:44:08;98446.05;;;6.99;100.00
42003;BME280;27693;50.506;30.832;2023-04-01T01:45:13;98441.80;;;6.98;100.00
42003;BME280;27693;50.506;30.832;2023-04-01T01:46:19;98444.38;;;6.98;100.00
42003;BME280;27693;50.506;30.832;2023-04-01T01:47:23;98441.70;;;6.99;100.00
42003;BME280;27693;50.506;30.832;2023-04-01T01:48:27;98453.81;;;6.99;100.00
42003;BME280;27693;50.506;30.832;2023-04-01T01:49:33;98454.86;;;6.95;100.00
42003;BME280;27693;50.506;30.832;2023-04-01T01:50:39;98451.38;;;6.96;100.00
42003;BME280;27693;50.506;30.832;2023-04-01T01:51:44;98459.66;;;7.02;100.00
42003;BME280;27693;50.506;30.832;2023-04-01T01:52:48;98454.08;;;7.10;100.00
42003;BME280;27693;50.506;30.832;2023-04-01T01:53:51;98450.73;;;7.08;100.00
42003;BME280;27693;50.506;30.832;2023-04-01T01:54:57;98449.38;;;7.01;100.00
42003;BME280;27693;50.506;30.832;2023-04-01T01:56:01;98464.75;;;7.04;100.00
42003;BME280;27693;50.506;30.832;2023-04-01T01:57:08;98455.41;;;7.01;100.00
42003;BME280;27693;50.506;30.832;2023-04-01T01:58:28;98455.48;;;7.00;100.00
42003;BME280;27693;50.506;30.832;2023-04-01T01:59:28;98458.98;;;6.99;100.00
42003;BME280;27693;50.506;30.832;2023-04-01T02:00:33;98458.58;;;7.07;100.00
42003;BME280;27693;50.506;30.832;2023-04-01T02:01:39;98451.91;;;7.02;100.00
42003;BME280;27693;50.506;30.832;2023-04-01T02:02:46;98461.08;;;7.08;100.00
42003;BME280;27693;50.506;30.832;2023-04-01T02:03:51;98457.44;;;7.12;100.00
42003;BME280;27693;50.506;30.832;2023-04-01T02:04:54;98449.67;;;7.12;100.00
42003;BME280;27693;50.506;30.832;2023-04-01T02:05:59;98458.94;;;7.16;100.00
42003;BME280;27693;50.506;30.832;2023-04-01T02:07:07;98456.94;;;7.22;100.00
42003;BME280;27693;50.506;30.832;2023-04-01T02:09:29;98457.55;;;7.27;100.00
42003;BME280;27693;50.506;30.832;2023-04-01T02:10:35;98466.11;;;7.11;100.00
42003;BME280;27693;50.506;30.832;2023-04-01T02:12:47;98456.44;;;7.15;100.00
42003;BME280;27693;50.506;30.832;2023-04-01T02:15:08;98459.11;;;7.13;100.00
42003;BME280;27693;50.506;30.832;2023-04-01T02:16:15;98464.28;;;7.13;100.00
42003;BME280;27693;50.506;30.832;2023-04-01T02:17:22;98458.02;;;7.17;100.00
42003;BME280;27693;50.506;30.832;2023-04-01T02:18:28;98446.91;;;7.15;100.00
42003;BME280;27693;50.506;30.832;2023-04-01T02:19:35;98448.77;;;7.13;100.00
42003;BME280;27693;50.506;30.832;2023-04-01T02:20:38;98454.61;;;7.17;100.00
42003;BME280;27693;50.506;30.832;2023-04-01T02:21:44;98459.61;;;7.20;100.00
42003;BME280;27693;50.506;30.832;2023-04-01T02:22:55;98457.11;;;7.18;100.00
42003;BME280;27693;50.506;30.832;2023-04-01T02:24:02;98455.44;;;7.17;100.00
42003;BME280;27693;50.506;30.832;2023-04-01T02:25:09;98461.52;;;7.16;100.00
42003;BME280;27693;50.506;30.832;2023-04-01T02:26:13;98464.28;;;7.13;100.00
42003;BME280;27693;50.506;30.832;2023-04-01T02:27:19;98460.02;;;7.12;100.00
42003;BME280;27693;50.506;30.832;2023-04-01T02:28:24;98463.28;;;7.16;100.00
42003;BME280;27693;50.506;30.832;2023-04-01T02:29:27;98463.96;;;7.19;100.00
42003;BME280;27693;50.506;30.832;2023-04-01T02:30:32;98462.61;;;7.12;100.00
42003;BME280;27693;50.506;30.832;2023-04-01T02:31:36;98460.94;;;7.11;100.00
42003;BME280;27693;50.506;30.832;2023-04-01T02:32:39;98463.43;;;7.13;100.00
42003;BME280;27693;50.506;30.832;2023-04-01T02:33:42;98463.78;;;7.23;100.00
42003;BME280;27693;50.506;30.832;2023-04-01T02:34:47;98459.96;;;7.30;100.00
42003;BME280;27693;50.506;30.832;2023-04-01T02:35:50;98452.20;;;7.30;100.00
42003;BME280;27693;50.506;30.832;2023-04-01T02:36:55;98464.38;;;7.28;100.00
42003;BME280;27693;50.506;30.832;2023-04-01T02:37:58;98453.64;;;7.35;100.00
42003;BME280;27693;50.506;30.832;2023-04-01T02:39:00;98454.46;;;7.36;100.00
42003;BME280;27693;50.506;30.832;2023-04-01T02:40:06;98447.20;;;7.27;100.00
42003;BME280;27693;50.506;30.832;2023-04-01T02:41:09;98453.30;;;7.26;100.00
42003;BME280;27693;50.506;30.832;2023-04-01T02:42:13;98453.11;;;7.29;100.00
42003;BME280;27693;50.506;30.832;2023-04-01T02:43:16;98453.64;;;7.35;100.00
42003;BME280;27693;50.506;30.832;2023-04-01T02:44:19;98452.97;;;7.32;100.00
42003;BME280;27693;50.506;30.832;2023-04-01T02:45:21;98458.47;;;7.26;100.00
42003;BME280;27693;50.506;30.832;2023-04-01T02:46:24;98454.02;;;7.28;100.00
42003;BME280;27693;50.506;30.832;2023-04-01T02:47:27;98455.46;;;7.33;100.00
42003;BME280;27693;50.506;30.832;2023-04-01T02:48:29;98451.55;;;7.42;100.00
42003;BME280;27693;50.506;30.832;2023-04-01T02:49:32;98452.48;;;7.41;100.00
42003;BME280;27693;50.506;30.832;2023-04-01T02:50:35;98447.80;;;7.48;100.00
42003;BME280;27693;50.506;30.832;2023-04-01T02:51:39;98447.80;;;7.48;100.00
42003;BME280;27693;50.506;30.832;2023-04-01T02:52:42;98452.31;;;7.44;100.00
42003;BME280;27693;50.506;30.832;2023-04-01T02:53:44;98454.31;;;7.39;100.00
42003;BME280;27693;50.506;30.832;2023-04-01T02:54:46;98458.91;;;7.34;100.00
42003;BME280;27693;50.506;30.832;2023-04-01T02:55:48;98459.64;;;7.36;100.00
42003;BME280;27693;50.506;30.832;2023-04-01T02:56:53;98456.47;;;7.31;100.00
42003;BME280;27693;50.506;30.832;2023-04-01T02:57:55;98450.05;;;7.38;100.00
42003;BME280;27693;50.506;30.832;2023-04-01T02:58:57;98452.64;;;7.38;100.00
42003;BME280;27693;50.506;30.832;2023-04-01T03:00:00;98453.73;;;7.34;100.00
42003;BME280;27693;50.506;30.832;2023-04-01T03:01:03;98448.61;;;7.32;100.00
42003;BME280;27693;50.506;30.832;2023-04-01T03:02:05;98452.97;;;7.32;100.00
42003;BME280;27693;50.506;30.832;2023-04-01T03:03:08;98447.79;;;7.32;100.00
42003;BME280;27693;50.506;30.832;2023-04-01T03:04:11;98440.94;;;7.31;100.00
42003;BME280;27693;50.506;30.832;2023-04-01T03:05:14;98445.63;;;7.24;100.00
42003;BME280;27693;50.506;30.832;2023-04-01T03:06:17;98452.20;;;7.30;100.00
42003;BME280;27693;50.506;30.832;2023-04-01T03:07:19;98449.61;;;7.30;100.00
42003;BME280;27693;50.506;30.832;2023-04-01T03:08:24;98443.09;;;7.23;100.00
42003;BME280;27693;50.506;30.832;2023-04-01T03:09:26;98447.94;;;7.29;100.00
42003;BME280;27693;50.506;30.832;2023-04-01T03:10:30;98441.85;;;7.30;100.00
42003;BME280;27693;50.506;30.832;2023-04-01T03:11:33;98444.63;;;7.27;100.00
42003;BME280;27693;50.506;30.832;2023-04-01T03:12:35;98446.35;;;7.26;100.00
42003;BME280;27693;50.506;30.832;2023-04-01T03:13:38;98441.41;;;7.22;100.00
42003;BME280;27693;50.506;30.832;2023-04-01T03:14:40;98442.94;;;7.26;100.00
42003;BME280;27693;50.506;30.832;2023-04-01T03:15:42;98447.36;;;7.24;100.00
42003;BME280;27693;50.506;30.832;2023-04-01T03:16:45;98438.92;;;7.20;100.00
42003;BME280;27693;50.506;30.832;2023-04-01T03:17:47;98439.77;;;7.21;100.00
42003;BME280;27693;50.506;30.832;2023-04-01T03:18:50;98448.44;;;7.19;100.00
42003;BME280;27693;50.506;30.832;2023-04-01T03:19:54;98448.36;;;7.21;100.00
42003;BME280;27693;50.506;30.832;2023-04-01T03:20:57;98445.63;;;7.24;100.00
42003;BME280;27693;50.506;30.832;2023-04-01T03:21:59;98445.67;;;7.23;100.00
42003;BME280;27693;50.506;30.832;2023-04-01T03:23:01;98451.77;;;7.22;100.00
42003;BME280;27693;50.506;30.832;2023-04-01T03:24:04;98444.94;;;7.21;100.00
42003;BME280;27693;50.506;30.832;2023-04-01T03:25:08;98452.38;;;7.27;100.00
42003;BME280;27693;50.506;30.832;2023-04-01T03:26:12;98445.97;;;7.34;100.00
42003;BME280;27693;50.506;30.832;2023-04-01T03:27:16;98449.14;;;7.39;100.00
42003;BME280;27693;50.506;30.832;2023-04-01T03:28:18;98448.55;;;7.34;100.00
42003;BME280;27693;50.506;30.832;2023-04-01T03:29:20;98458.63;;;7.39;100.00
42003;BME280;27693;50.506;30.832;2023-04-01T03:30:23;98446.70;;;7.36;100.00
42003;BME280;27693;50.506;30.832;2023-04-01T03:31:25;98459.31;;;7.42;100.00
42003;BME280;27693;50.506;30.832;2023-04-01T03:32:29;98460.16;;;7.43;100.00
42003;BME280;27693;50.506;30.832;2023-04-01T03:33:32;98451.48;;;7.44;100.00
42003;BME280;27693;50.506;30.832;2023-04-01T03:34:35;98458.63;;;7.39;100.00
42003;BME280;27693;50.506;30.832;2023-04-01T03:35:37;98460.89;;;7.45;100.00
42003;BME280;27693;50.506;30.832;2023-04-01T03:36:41;98455.08;;;7.41;100.00
42003;BME280;27693;50.506;30.832;2023-04-01T03:37:43;98459.48;;;7.39;100.00
42003;BME280;27693;50.506;30.832;2023-04-01T03:38:45;98460.98;;;7.43;100.00
42003;BME280;27693;50.506;30.832;2023-04-01T03:39:49;98450.30;;;7.49;100.00
42003;BME280;27693;50.506;30.832;2023-04-01T03:40:52;98456.91;;;7.39;100.00
42003;BME280;27693;50.506;30.832;2023-04-01T03:41:54;98456.91;;;7.39;100.00
42003;BME280;27693;50.506;30.832;2023-04-01T03:42:56;98455.08;;;7.41;100.00
42003;BME280;27693;50.506;30.832;2023-04-01T03:43:59;98458.98;;;7.48;100.00
42003;BME280;27693;50.506;30.832;2023-04-01T03:45:03;98459.35;;;7.58;100.00
42003;BME280;27693;50.506;30.832;2023-04-01T03:46:06;98458.16;;;7.64;100.00
42003;BME280;27693;50.506;30.832;2023-04-01T03:47:09;98462.00;;;7.73;100.00
42003;BME280;27693;50.506;30.832;2023-04-01T03:48:11;98457.16;;;7.66;100.00
42003;BME280;27693;50.506;30.832;2023-04-01T03:49:13;98464.53;;;7.74;100.00
42003;BME280;27693;50.506;30.832;2023-04-01T03:50:16;98462.52;;;7.79;100.00
42003;BME280;27693;50.506;30.832;2023-04-01T03:51:19;98461.18;;;7.72;100.00
42003;BME280;27693;50.506;30.832;2023-04-01T03:52:22;98462.36;;;7.82;100.00
42003;BME280;27693;50.506;30.832;2023-04-01T03:53:25;98465.68;;;7.84;100.00
42003;BME280;27693;50.506;30.832;2023-04-01T03:54:29;98468.27;;;7.84;100.00
42003;BME280;27693;50.506;30.832;2023-04-01T03:55:31;98470.86;;;7.84;100.00
42003;BME280;27693;50.506;30.832;2023-04-01T03:56:35;98473.36;;;7.86;100.00
42003;BME280;27693;50.506;30.832;2023-04-01T03:57:38;98475.38;;;7.81;100.00
42003;BME280;27693;50.506;30.832;2023-04-01T03:58:43;98476.86;;;7.69;100.00
42003;BME280;27693;50.506;30.832;2023-04-01T03:59:45;98470.53;;;7.59;100.00
42003;BME280;27693;50.506;30.832;2023-04-01T04:00:47;98474.36;;;7.51;100.00
42003;BME280;27693;50.506;30.832;2023-04-01T04:01:50;98479.69;;;7.48;100.00
42003;BME280;27693;50.506;30.832;2023-04-01T04:02:52;98468.51;;;7.48;100.00
42003;BME280;27693;50.506;30.832;2023-04-01T04:03:57;98477.09;;;7.48;100.00
42003;BME280;27693;50.506;30.832;2023-04-01T04:04:59;98478.95;;;7.46;100.00
42003;BME280;27693;50.506;30.832;2023-04-01T04:06:02;98454.80;;;7.46;100.00
42003;BME280;27693;50.506;30.832;2023-04-01T04:07:06;98475.70;;;7.59;100.00
42003;BME280;27693;50.506;30.832;2023-04-01T04:08:11;98475.03;;;7.71;100.00
42003;BME280;27693;50.506;30.832;2023-04-01T04:09:14;98478.88;;;7.64;100.00
42003;BME280;27693;50.506;30.832;2023-04-01T04:10:18;98486.73;;;7.62;100.00
42003;BME280;27693;50.506;30.832;2023-04-01T04:11:21;98480.40;;;7.68;100.00
42003;BME280;27693;50.506;30.832;2023-04-01T04:12:25;98486.55;;;7.65;100.00
42003;BME280;27693;50.506;30.832;2023-04-01T04:13:28;98478.54;;;7.70;100.00
42003;BME280;27693;50.506;30.832;2023-04-01T04:14:34;98490.23;;;7.77;100.00
42003;BME280;27693;50.506;30.832;2023-04-01T04:15:38;98494.35;;;7.81;100.00
42003;BME280;27693;50.506;30.832;2023-04-01T04:16:41;98493.44;;;7.82;100.00
42003;BME280;27693;50.506;30.832;2023-04-01T04:17:45;98488.50;;;7.78;100.00
42003;BME280;27693;50.506;30.832;2023-04-01T04:18:49;98479.55;;;7.83;100.00
42003;BME280;27693;50.506;30.832;2023-04-01T04:19:52;98491.09;;;7.94;100.00
42003;BME280;27693;50.506;30.832;2023-04-01T04:20:56;98486.73;;;7.94;100.00
42003;BME280;27693;50.506;30.832;2023-04-01T04:22:00;98484.23;;;7.93;100.00
42003;BME280;27693;50.506;30.832;2023-04-01T04:23:03;98488.08;;;7.86;100.00
42003;BME280;27693;50.506;30.832;2023-04-01T04:24:06;98483.23;;;7.79;100.00
42003;BME280;27693;50.506;30.832;2023-04-01T04:25:11;98494.41;;;7.64;100.00
42003;BME280;27693;50.506;30.832;2023-04-01T04:26:15;98500.58;;;7.61;100.00
42003;BME280;27693;50.506;30.832;2023-04-01T04:27:18;98501.06;;;7.52;100.00
42003;BME280;27693;50.506;30.832;2023-04-01T04:28:22;98497.80;;;7.48;100.00
42003;BME280;27693;50.506;30.832;2023-04-01T04:29:27;98504.23;;;7.41;100.00
42003;BME280;27693;50.506;30.832;2023-04-01T04:30:29;98500.89;;;7.39;100.00
42003;BME280;27693;50.506;30.832;2023-04-01T04:31:32;98501.71;;;7.40;100.00
42003;BME280;27693;50.506;30.832;2023-04-01T04:32:35;98502.56;;;7.40;100.00
42003;BME280;27693;50.506;30.832;2023-04-01T04:33:38;98509.23;;;7.44;100.00
42003;BME280;27693;50.506;30.832;2023-04-01T04:34:42;98510.73;;;7.48;100.00
42003;BME280;27693;50.506;30.832;2023-04-01T04:35:44;98503.73;;;7.50;100.00
42003;BME280;27693;50.506;30.832;2023-04-01T04:36:48;98510.73;;;7.48;100.00
42003;BME280;27693;50.506;30.832;2023-04-01T04:37:51;98510.73;;;7.48;100.00
42003;BME280;27693;50.506;30.832;2023-04-01T04:38:54;98510.59;;;7.51;100.00
42003;BME280;27693;50.506;30.832;2023-04-01T04:39:57;98512.77;;;7.59;100.00
42003;BME280;27693;50.506;30.832;2023-04-01T04:40:59;98514.97;;;7.67;100.00
42003;BME280;27693;50.506;30.832;2023-04-01T04:42:02;98504.86;;;7.78;100.00
42003;BME280;27693;50.506;30.832;2023-04-01T04:43:05;98517.80;;;7.78;100.00
42003;BME280;27693;50.506;30.832;2023-04-01T04:44:08;98514.97;;;7.83;100.00
42003;BME280;27693;50.506;30.832;2023-04-01T04:45:10;98509.61;;;7.70;100.00
42003;BME280;27693;50.506;30.832;2023-04-01T04:46:16;98510.80;;;7.80;100.00
42003;BME280;27693;50.506;30.832;2023-04-01T04:47:20;98501.27;;;7.97;100.00
42003;BME280;27693;50.506;30.832;2023-04-01T04:48:22;98501.69;;;8.05;100.00
42003;BME280;27693;50.506;30.832;2023-04-01T04:49:25;98496.50;;;8.05;100.00
42003;BME280;27693;50.506;30.832;2023-04-01T04:50:27;98495.74;;;8.03;100.00
42003;BME280;27693;50.506;30.832;2023-04-01T04:51:29;98496.09;;;8.13;100.00
42003;BME280;27693;50.506;30.832;2023-04-01T04:52:32;98491.98;;;8.09;100.00
42003;BME280;27693;50.506;30.832;2023-04-01T04:53:35;98491.58;;;8.17;100.00
42003;BME280;27693;50.506;30.832;2023-04-01T04:54:38;98488.90;;;8.18;100.00
42003;BME280;27693;50.506;30.832;2023-04-01T04:55:45;98490.06;;;8.12;100.00
42003;BME280;27693;50.506;30.832;2023-04-01T04:56:51;98494.75;;;8.22;100.00
42003;BME280;27693;50.506;30.832;2023-04-01T04:57:55;98498.08;;;8.08;100.00
42003;BME280;27693;50.506;30.832;2023-04-01T04:58:58;98495.02;;;8.01;100.00
42003;BME280;27693;50.506;30.832;2023-04-01T05:00:04;98499.62;;;7.96;100.00
42003;BME280;27693;50.506;30.832;2023-04-01T05:01:11;98498.43;;;7.86;100.00
42003;BME280;27693;50.506;30.832;2023-04-01T05:02:14;98504.86;;;7.78;100.00
42003;BME280;27693;50.506;30.832;2023-04-01T05:03:18;98497.94;;;7.79;100.00
42003;BME280;27693;50.506;30.832;2023-04-01T05:04:21;98493.44;;;7.82;100.00
42003;BME280;27693;50.506;30.832;2023-04-01T05:05:24;98498.77;;;7.79;100.00
42003;BME280;27693;50.506;30.832;2023-04-01T05:06:27;98490.42;;;7.74;100.00
42003;BME280;27693;50.506;30.832;2023-04-01T05:07:33;98488.56;;;7.76;100.00
42003;BME280;27693;50.506;30.832;2023-04-01T05:08:37;98488.26;;;7.82;100.00
42003;BME280;27693;50.506;30.832;2023-04-01T05:09:40;98495.08;;;7.83;100.00
42003;BME280;27693;50.506;30.832;2023-04-01T05:10:43;98488.65;;;7.91;100.00
42003;BME280;27693;50.506;30.832;2023-04-01T05:11:47;98493.59;;;7.95;100.00
42003;BME280;27693;50.506;30.832;2023-04-01T05:12:50;98492.75;;;8.11;100.00
42003;BME280;27693;50.506;30.832;2023-04-01T05:13:54;98496.50;;;8.05;100.00
42003;BME280;27693;50.506;30.832;2023-04-01T05:14:56;98488.64;;;8.07;100.00
42003;BME280;27693;50.506;30.832;2023-04-01T05:15:58;98491.89;;;8.10;100.00
42003;BME280;27693;50.506;30.832;2023-04-01T05:17:02;98489.72;;;8.19;100.00
42003;BME280;27693;50.506;30.832;2023-04-01T05:18:04;98482.01;;;8.33;100.00
42003;BME280;27693;50.506;30.832;2023-04-01T05:19:06;98494.40;;;8.28;100.00
42003;BME280;27693;50.506;30.832;2023-04-01T05:20:14;98500.59;;;8.25;100.00
42003;BME280;27693;50.506;30.832;2023-04-01T05:21:16;98492.56;;;8.30;100.00
42003;BME280;27693;50.506;30.832;2023-04-01T05:22:19;98490.00;;;8.44;100.00
42003;BME280;27693;50.506;30.832;2023-04-01T05:23:23;98492.87;;;8.56;100.00
42003;BME280;27693;50.506;30.832;2023-04-01T05:24:25;98488.95;;;8.49;99.24
42003;BME280;27693;50.506;30.832;2023-04-01T05:25:28;98493.22;;;8.50;99.19
42003;BME280;27693;50.506;30.832;2023-04-01T05:26:31;98486.11;;;8.53;98.98
42003;BME280;27693;50.506;30.832;2023-04-01T05:27:34;98487.59;;;8.57;98.81
42003;BME280;27693;50.506;30.832;2023-04-01T05:28:38;98482.91;;;8.64;98.68
42003;BME280;27693;50.506;30.832;2023-04-01T05:29:40;98485.86;;;8.72;98.40
42003;BME280;27693;50.506;30.832;2023-04-01T05:30:45;98483.27;;;8.72;98.33
42003;BME280;27693;50.506;30.832;2023-04-01T05:32:01;98481.27;;;8.77;98.01
42003;BME280;27693;50.506;30.832;2023-04-01T05:33:04;98499.98;;;8.83;97.04
42003;BME280;27693;50.506;30.832;2023-04-01T05:34:07;98497.55;;;8.79;96.30
42003;BME280;27693;50.506;30.832;2023-04-01T05:35:11;98495.11;;;8.62;96.46
42003;BME280;27693;50.506;30.832;2023-04-01T05:36:15;98500.65;;;8.56;96.83
42003;BME280;27693;50.506;30.832;2023-04-01T05:37:19;98494.27;;;8.45;97.37
42003;BME280;27693;50.506;30.832;2023-04-01T05:38:22;98491.55;;;8.49;97.68
42003;BME280;27693;50.506;30.832;2023-04-01T05:39:25;98494.19;;;8.63;97.86
42003;BME280;27693;50.506;30.832;2023-04-01T05:40:29;98497.18;;;8.71;97.62
42003;BME280;27693;50.506;30.832;2023-04-01T05:41:37;98489.97;;;8.76;97.24
42003;BME280;27693;50.506;30.832;2023-04-01T05:42:40;98496.54;;;8.52;97.08
42003;BME280;27693;50.506;30.832;2023-04-01T05:43:43;98496.54;;;8.52;97.32
42003;BME280;27693;50.506;30.832;2023-04-01T05:44:55;98485.84;;;8.58;97.28
42003;BME280;27693;50.506;30.832;2023-04-01T05:46:16;98487.02;;;8.52;97.00
42003;BME280;27693;50.506;30.832;2023-04-01T05:47:22;98492.67;;;8.59;97.21
42003;BME280;27693;50.506;30.832;2023-04-01T05:48:25;98492.52;;;8.62;96.83
42003;BME280;27693;50.506;30.832;2023-04-01T05:49:29;98487.80;;;8.69;96.75
42003;BME280;27693;50.506;30.832;2023-04-01T05:50:32;98487.73;;;8.70;96.47
42003;BME280;27693;50.506;30.832;2023-04-01T05:51:35;98492.09;;;8.84;96.13
42003;BME280;27693;50.506;30.832;2023-04-01T05:52:38;98489.77;;;8.79;95.85
42003;BME280;27693;50.506;30.832;2023-04-01T05:53:42;98494.89;;;8.81;95.60
42003;BME280;27693;50.506;30.832;2023-04-01T05:54:44;98486.17;;;8.52;95.90
42003;BME280;27693;50.506;30.832;2023-04-01T05:55:46;98491.87;;;8.42;96.49
42003;BME280;27693;50.506;30.832;2023-04-01T05:56:49;98497.39;;;8.52;96.72
42003;BME280;27693;50.506;30.832;2023-04-01T05:57:51;98501.70;;;8.68;96.64
42003;BME280;27693;50.506;30.832;2023-04-01T05:58:54;98500.14;;;8.79;96.30
42003;BME280;27693;50.506;30.832;2023-04-01T05:59:57;98499.62;;;8.89;95.96